Time;durP1;ratioP1;P1;durP2;ratioP2;P2;SDS_P1;SDS_P2;PMS_P1;PMS_P2;Temp;Humidity;BMP_temperature;BMP_pressure;BME280_temperature;BME280_humidity;BME280_pressure;Samples;Min_cycle;Max_cycle;Signal;HPM_P1;HPM_P2
2021/07/02 00:01:04;;;;;;;11.35;10.13;;;;;;;;;;4975260;28;20187;-85
2021/07/02 00:03:30;;;;;;;12.02;9.65;;;;;;;;;;4958811;28;20546;-86
2021/07/02 00:05:56;;;;;;;13.93;10.30;;;18.40;99.90;;;;;;4974648;28;20644;-84
2021/07/02 00:08:26;;;;;;;13.23;9.13;;;;;;;;;;4974117;28;20186;-85
2021/07/02 00:10:55;;;;;;;11.43;9.07;;;18.30;99.90;;;;;;4975652;28;20175;-85
2021/07/02 00:13:21;;;;;;;13.23;9.27;;;18.00;99.90;;;;;;4975740;28;20548;-86
2021/07/02 00:15:47;;;;;;;11.55;9.98;;;;;;;;;;4974363;28;20415;-86
2021/07/02 00:18:13;;;;;;;13.20;8.35;;;18.40;99.90;;;;;;4974780;28;20183;-85
2021/07/02 00:20:39;;;;;;;11.00;9.35;;;18.00;99.90;;;;;;4973980;28;20690;-86
2021/07/02 00:23:04;;;;;;;14.90;8.55;;;18.00;99.90;;;;;;4974443;28;20277;-85
2021/07/02 00:25:30;;;;;;;16.58;8.60;;;;;;;;;;4974550;28;20578;-85
2021/07/02 00:27:56;;;;;;;12.80;8.88;;;18.30;99.90;;;;;;4975451;28;20183;-85
2021/07/02 00:30:23;;;;;;;12.13;9.23;;;18.20;99.90;;;;;;4974446;28;20186;-86
2021/07/02 00:32:49;;;;;;;16.88;9.40;;;18.30;99.90;;;;;;4975289;28;20245;-86
2021/07/02 00:35:14;;;;;;;14.25;9.00;;;18.10;99.90;;;;;;4975825;28;20174;-86
2021/07/02 00:37:40;;;;;;;13.77;9.15;;;18.00;99.90;;;;;;4973776;28;20320;-85
2021/07/02 00:40:06;;;;;;;17.85;8.57;;;18.10;99.90;;;;;;4957823;28;20663;-85
2021/07/02 00:42:32;;;;;;;12.48;9.20;;;18.10;99.90;;;;;;4974148;28;20194;-85
2021/07/02 00:44:58;;;;;;;12.75;9.00;;;;;;;;;;4975237;28;20738;-85
2021/07/02 00:47:24;;;;;;;17.67;9.55;;;17.80;99.90;;;;;;4975188;28;20175;-86
2021/07/02 00:49:50;;;;;;;16.15;9.70;;;;;;;;;;4973796;28;20660;-85
2021/07/02 00:52:16;;;;;;;18.40;9.82;;;18.00;99.90;;;;;;4974057;28;20190;-85
2021/07/02 00:54:44;;;;;;;12.32;9.73;;;17.60;99.90;;;;;;4975078;28;20171;-86
2021/07/02 00:57:12;;;;;;;13.77;10.90;;;18.10;99.90;;;;;;4974102;28;20198;-85
2021/07/02 00:59:41;;;;;;;19.67;10.65;;;18.20;99.90;;;;;;4973487;28;20267;-86
2021/07/02 01:02:08;;;;;;;14.23;9.90;;;18.00;99.90;;;;;;4958411;28;20178;-86
2021/07/02 01:04:34;;;;;;;16.58;11.45;;;18.00;99.90;;;;;;4973687;28;20512;-86
2021/07/02 01:07:00;;;;;;;22.95;11.65;;;;;;;;;;4941428;28;20182;-87
2021/07/02 01:09:26;;;;;;;13.13;11.52;;;17.90;99.90;;;;;;4973940;28;20230;-84
2021/07/02 01:11:52;;;;;;;19.98;11.63;;;17.50;99.90;;;;;;4973320;28;20187;-86
2021/07/02 01:14:19;;;;;;;17.85;11.07;;;17.80;99.90;;;;;;4974824;28;20325;-85
2021/07/02 01:16:44;;;;;;;16.05;10.85;;;18.10;99.90;;;;;;4973464;28;20197;-85
2021/07/02 01:19:11;;;;;;;14.23;11.20;;;;;;;;;;4974669;28;20179;-85
2021/07/02 01:21:37;;;;;;;19.48;11.05;;;;;;;;;;4974594;28;20183;-85
2021/07/02 01:24:03;;;;;;;19.20;9.90;;;17.80;99.90;;;;;;4975143;28;20182;-84
2021/07/02 01:26:30;;;;;;;15.57;10.75;;;17.70;99.90;;;;;;4973419;28;20686;-86
2021/07/02 01:28:57;;;;;;;16.05;11.23;;;18.10;99.90;;;;;;4974274;28;20198;-84
2021/07/02 01:31:22;;;;;;;11.38;9.80;;;17.60;99.90;;;;;;4973849;28;20190;-85
2021/07/02 01:33:48;;;;;;;16.55;10.10;;;17.10;99.90;;;;;;4956761;28;20207;-86
2021/07/02 01:36:21;;;;;;;12.55;10.23;;;17.70;99.90;;;;;;4962708;28;20312;-86
2021/07/02 01:38:47;;;;;;;13.50;9.60;;;17.50;99.90;;;;;;4974745;28;20174;-85
2021/07/02 01:41:13;;;;;;;12.57;10.50;;;17.60;99.90;;;;;;4973147;28;20190;-86
2021/07/02 01:43:39;;;;;;;15.48;9.77;;;;;;;;;;4974517;28;20186;-86
2021/07/02 01:46:05;;;;;;;13.68;10.02;;;;;;;;;;4974544;28;20187;-86
2021/07/02 01:48:31;;;;;;;16.70;10.38;;;;;;;;;;4973144;28;20524;-86
2021/07/02 01:50:57;;;;;;;18.52;9.75;;;17.60;99.90;;;;;;4973047;28;20274;-86
2021/07/02 01:53:23;;;;;;;13.45;10.48;;;;;;;;;;4973027;28;20289;-86
2021/07/02 01:55:50;;;;;;;16.92;9.70;;;18.10;99.90;;;;;;4974164;28;20762;-86
2021/07/02 01:58:15;;;;;;;13.80;9.23;;;17.90;99.90;;;;;;4973603;28;20188;-87
2021/07/02 02:00:41;;;;;;;14.30;9.77;;;;;;;;;;4973053;28;20186;-87
2021/07/02 02:03:07;;;;;;;15.80;10.52;;;18.00;99.90;;;;;;4973231;28;20186;-87
2021/07/02 02:05:33;;;;;;;16.27;9.65;;;17.20;99.90;;;;;;4974237;28;20547;-86
2021/07/02 02:07:58;;;;;;;14.57;9.82;;;17.90;99.90;;;;;;4974201;28;20587;-86
2021/07/02 02:10:25;;;;;;;14.38;8.98;;;;;;;;;;4974418;28;20614;-86
2021/07/02 02:12:50;;;;;;;12.00;9.45;;;17.40;99.90;;;;;;4972709;28;20277;-86
2021/07/02 02:15:16;;;;;;;17.17;9.18;;;17.60;99.90;;;;;;4974165;28;20644;-86
2021/07/02 02:17:42;;;;;;;16.83;9.38;;;;;;;;;;4973205;28;20186;-85
2021/07/02 02:20:10;;;;;;;16.58;8.93;;;17.70;99.90;;;;;;4973286;28;20229;-87
2021/07/02 02:22:36;;;;;;;14.10;9.85;;;17.60;99.90;;;;;;4973461;28;20281;-86
2021/07/02 02:25:02;;;;;;;17.98;9.55;;;;;;;;;;4973167;28;20262;-85
2021/07/02 02:27:28;;;;;;;12.55;9.55;;;17.20;99.90;;;;;;4973445;28;20175;-86
2021/07/02 02:29:54;;;;;;;16.88;8.93;;;;;;;;;;4974485;28;20187;-86
2021/07/02 02:32:19;;;;;;;16.63;8.93;;;17.80;99.90;;;;;;4979926;28;20178;-86
2021/07/02 02:34:46;;;;;;;15.20;8.50;;;;;;;;;;4990647;28;20190;-86
2021/07/02 02:37:12;;;;;;;13.82;8.90;;;;;;;;;;4989523;28;20222;-86
2021/07/02 02:39:38;;;;;;;13.75;9.32;;;17.70;99.90;;;;;;4988933;28;20198;-86
2021/07/02 02:42:05;;;;;;;15.23;9.82;;;18.00;99.90;;;;;;4976762;28;20206;-86
2021/07/02 02:44:31;;;;;;;16.48;8.25;;;;;;;;;;4976089;28;20209;-86
2021/07/02 02:46:57;;;;;;;13.25;8.27;;;;;;;;;;4977235;28;20221;-86
2021/07/02 02:49:24;;;;;;;13.25;8.65;;;;;;;;;;4977690;28;20174;-87
2021/07/02 02:51:50;;;;;;;14.00;8.05;;;17.50;99.90;;;;;;4976294;28;20186;-85
2021/07/02 02:54:17;;;;;;;9.82;8.43;;;;;;;;;;4976053;28;20217;-86
2021/07/02 02:59:27;;;;;;;13.15;8.05;;;17.70;99.90;;;;;;4977023;28;20182;-86
2021/07/02 03:01:53;;;;;;;8.00;7.20;;;;;;;;;;4959899;28;20187;-86
2021/07/02 03:04:19;;;;;;;11.35;8.13;;;;;;;;;;4977260;28;20269;-85
2021/07/02 03:06:44;;;;;;;9.75;7.15;;;17.50;99.90;;;;;;4976002;28;20219;-86
2021/07/02 03:09:10;;;;;;;8.82;7.32;;;18.20;99.90;;;;;;4976723;28;20218;-85
2021/07/02 03:11:36;;;;;;;8.18;6.78;;;17.70;99.90;;;;;;4975674;28;20213;-86
2021/07/02 03:14:01;;;;;;;6.63;6.03;;;17.50;99.90;;;;;;4975497;28;20210;-86
2021/07/02 03:16:27;;;;;;;7.25;6.07;;;17.70;99.90;;;;;;4959992;28;20186;-85
2021/07/02 03:18:53;;;;;;;9.52;6.72;;;17.90;99.90;;;;;;4976454;28;20236;-85
2021/07/02 03:21:19;;;;;;;7.68;6.15;;;;;;;;;;4975467;28;20183;-85
2021/07/02 03:23:45;;;;;;;10.30;6.32;;;17.90;99.90;;;;;;4959779;28;20193;-85
2021/07/02 03:26:11;;;;;;;13.20;8.50;;;;;;;;;;4976573;28;20195;-85
2021/07/02 03:28:37;;;;;;;10.60;7.35;;;;;;;;;;4975446;28;20310;-87
2021/07/02 03:31:03;;;;;;;10.23;7.28;;;17.30;99.90;;;;;;4976527;28;20188;-85
2021/07/02 03:33:28;;;;;;;9.68;7.40;;;17.70;99.90;;;;;;4959256;28;20224;-85
2021/07/02 03:35:54;;;;;;;10.93;7.38;;;;;;;;;;4958728;28;20241;-85
2021/07/02 03:38:20;;;;;;;11.65;7.70;;;17.90;99.90;;;;;;4976397;28;20199;-85
2021/07/02 03:40:46;;;;;;;8.32;7.35;;;18.00;99.90;;;;;;4976361;28;20221;-85
2021/07/02 03:43:12;;;;;;;15.23;7.15;;;;;;;;;;4973981;28;20706;-85
2021/07/02 03:45:38;;;;;;;9.48;7.80;;;18.00;99.90;;;;;;4974974;28;20191;-85
2021/07/02 03:48:04;;;;;;;9.15;6.57;;;17.90;99.90;;;;;;4974903;28;20183;-85
2021/07/02 03:50:30;;;;;;;8.30;6.90;;;;;;;;;;4976557;28;20662;-85
2021/07/02 03:52:55;;;;;;;6.50;5.90;;;18.20;99.90;;;;;;4974658;28;20214;-85
2021/07/02 03:55:21;;;;;;;11.43;7.05;;;;;;;;;;4976435;28;20187;-85
2021/07/02 03:57:47;;;;;;;10.45;7.22;;;17.80;99.90;;;;;;4976228;28;20175;-85
2021/07/02 04:00:13;;;;;;;9.40;7.32;;;18.30;99.90;;;;;;4974952;28;20204;-85
2021/07/02 04:02:39;;;;;;;14.23;7.00;;;;;;;;;;4975087;28;20186;-85
2021/07/02 04:05:05;;;;;;;9.75;6.88;;;17.50;99.90;;;;;;4975101;28;20194;-86
2021/07/02 04:07:31;;;;;;;12.82;6.97;;;;;;;;;;4974936;28;20175;-85
2021/07/02 04:09:57;;;;;;;8.90;7.53;;;17.90;99.90;;;;;;4974696;28;20186;-86
2021/07/02 04:12:23;;;;;;;8.15;6.72;;;;;;;;;;4958710;28;20237;-85
2021/07/02 04:14:49;;;;;;;10.35;7.47;;;17.90;99.90;;;;;;4958766;28;20194;-85
2021/07/02 04:17:15;;;;;;;7.45;6.70;;;;;;;;;;4975248;28;20644;-86
2021/07/02 04:19:41;;;;;;;7.78;6.93;;;18.00;99.90;;;;;;4974815;28;20238;-86
2021/07/02 04:22:08;;;;;;;10.93;8.63;;;18.20;99.90;;;;;;4958018;28;20187;-86
2021/07/02 04:24:34;;;;;;;12.02;6.75;;;18.20;99.90;;;;;;4958752;28;20257;-86
2021/07/02 04:26:59;;;;;;;11.15;7.38;;;18.20;99.90;;;;;;4975299;28;20266;-86
2021/07/02 04:29:26;;;;;;;9.77;7.07;;;;;;;;;;4974686;28;20277;-86
2021/07/02 04:31:53;;;;;;;8.70;7.32;;;18.00;99.90;;;;;;4974517;28;20179;-85
2021/07/02 04:34:19;;;;;;;8.30;6.63;;;18.50;99.90;;;;;;4973960;28;20633;-85
2021/07/02 04:36:45;;;;;;;8.60;7.03;;;18.50;99.90;;;;;;4975225;28;20227;-84
2021/07/02 04:39:11;;;;;;;10.13;7.05;;;18.60;99.90;;;;;;4975117;28;20206;-85
2021/07/02 04:41:37;;;;;;;10.48;8.10;;;18.30;99.90;;;;;;4957781;28;20620;-85
2021/07/02 04:44:04;;;;;;;11.77;7.25;;;18.30;99.90;;;;;;4973724;28;20270;-85
2021/07/02 04:46:30;;;;;;;13.88;7.97;;;18.40;99.90;;;;;;4975483;28;20187;-85
2021/07/02 04:48:55;;;;;;;10.95;7.75;;;18.40;99.90;;;;;;4975306;28;20175;-85
2021/07/02 04:51:21;;;;;;;15.70;7.65;;;18.70;99.90;;;;;;4963195;28;20335;-85
2021/07/02 04:53:47;;;;;;;8.55;7.25;;;17.90;99.90;;;;;;4973693;28;20210;-85
2021/07/02 04:56:13;;;;;;;10.15;7.63;;;17.90;99.90;;;;;;4974871;28;20182;-85
2021/07/02 04:58:41;;;;;;;9.52;7.63;;;18.60;99.90;;;;;;4975417;28;20719;-84
2021/07/02 05:01:06;;;;;;;8.90;7.22;;;18.70;99.90;;;;;;4973512;28;20182;-85
2021/07/02 05:03:32;;;;;;;10.25;8.45;;;18.30;99.90;;;;;;4958065;28;20186;-85
2021/07/02 05:05:58;;;;;;;12.23;7.80;;;;;;;;;;4973684;28;20194;-84
2021/07/02 05:08:25;;;;;;;11.45;8.38;;;;;;;;;;4973513;28;20178;-84
2021/07/02 05:10:50;;;;;;;8.95;8.00;;;18.80;99.90;;;;;;4973893;28;20264;-84
2021/07/02 05:13:16;;;;;;;13.20;7.80;;;;;;;;;;4973312;28;20238;-86
2021/07/02 05:15:42;;;;;;;9.95;7.90;;;;;;;;;;4973706;28;20189;-84
2021/07/02 05:18:08;;;;;;;9.82;7.90;;;18.50;99.90;;;;;;4974505;28;20185;-85
2021/07/02 05:20:34;;;;;;;12.73;7.40;;;;;;;;;;4974739;28;20270;-85
2021/07/02 05:23:00;;;;;;;11.75;7.35;;;18.50;99.90;;;;;;4974788;28;20667;-84
2021/07/02 05:25:26;;;;;;;11.75;7.97;;;18.50;99.90;;;;;;4974143;28;20179;-85
2021/07/02 05:27:52;;;;;;;15.13;7.45;;;18.40;99.90;;;;;;4973465;28;20182;-84
2021/07/02 05:30:18;;;;;;;19.10;7.78;;;18.20;99.90;;;;;;4972988;28;20188;-85
2021/07/02 05:32:44;;;;;;;11.48;8.57;;;18.40;99.90;;;;;;4972980;28;20210;-85
2021/07/02 05:35:10;;;;;;;11.23;7.68;;;18.50;99.90;;;;;;4972462;28;20229;-85
2021/07/02 05:37:40;;;;;;;12.00;8.68;;;18.60;99.90;;;;;;4972617;28;20595;-85
2021/07/02 05:40:07;;;;;;;22.85;8.88;;;18.60;99.90;;;;;;4974522;28;20249;-86
2021/07/02 05:42:32;;;;;;;23.10;8.65;;;18.70;99.90;;;;;;4974878;28;20190;-85
2021/07/02 05:44:58;;;;;;;17.27;10.05;;;18.90;99.90;;;;;;4974179;28;20187;-85
2021/07/02 05:47:24;;;;;;;12.32;7.32;;;18.50;99.90;;;;;;4972829;28;20187;-86
2021/07/02 05:49:50;;;;;;;19.42;8.15;;;18.50;99.90;;;;;;4972661;28;20182;-85
2021/07/02 05:52:16;;;;;;;23.35;9.35;;;18.90;99.90;;;;;;4972208;28;20193;-85
2021/07/02 05:54:47;;;;;;;29.65;9.02;;;;;;;;;;4972511;28;20218;-85
2021/07/02 05:57:13;;;;;;;19.98;8.82;;;;;;;;;;4973376;28;20167;-85
2021/07/02 05:59:39;;;;;;;15.55;8.48;;;;;;;;;;4972377;28;20594;-85
2021/07/02 06:02:05;;;;;;;8.73;7.57;;;;;;;;;;4972786;28;20174;-85
2021/07/02 06:04:31;;;;;;;10.80;7.43;;;18.60;99.90;;;;;;4972157;28;20186;-85
2021/07/02 06:06:56;;;;;;;13.35;7.35;;;19.30;99.90;;;;;;4977398;28;20178;-85
2021/07/02 06:09:22;;;;;;;11.88;7.25;;;;;;;;;;4977130;28;20229;-85
2021/07/02 06:11:48;;;;;;;9.20;7.63;;;;;;;;;;4977010;28;20253;-85
2021/07/02 06:14:14;;;;;;;7.90;6.90;;;18.70;99.90;;;;;;4976937;28;20210;-85
2021/07/02 06:16:40;;;;;;;9.23;7.28;;;;;;;;;;4976209;28;20655;-84
2021/07/02 06:19:06;;;;;;;11.65;7.93;;;;;;;;;;4976350;28;20182;-85
2021/07/02 06:21:32;;;;;;;10.40;6.95;;;19.20;99.90;;;;;;4976954;28;20182;-85
2021/07/02 06:23:57;;;;;;;8.57;7.35;;;18.40;99.90;;;;;;4976634;28;20178;-84
2021/07/02 06:26:23;;;;;;;8.50;7.22;;;;;;;;;;4979081;28;20229;-85
2021/07/02 06:28:49;;;;;;;10.10;6.97;;;19.00;99.90;;;;;;4975895;28;20645;-85
2021/07/02 06:31:15;;;;;;;9.88;7.13;;;;;;;;;;4976628;28;20182;-85
2021/07/02 06:33:41;;;;;;;10.75;7.93;;;19.00;99.90;;;;;;4975634;28;20210;-85
2021/07/02 06:36:07;;;;;;;8.95;7.25;;;;;;;;;;4975186;28;20293;-85
2021/07/02 06:38:32;;;;;;;12.07;8.05;;;19.00;99.90;;;;;;4959409;28;20632;-86
2021/07/02 06:40:58;;;;;;;10.13;7.68;;;19.20;99.90;;;;;;4958886;28;20194;-86
2021/07/02 06:43:24;;;;;;;11.73;7.80;;;;;;;;;;4977497;28;20182;-85
2021/07/02 06:45:50;;;;;;;12.27;8.18;;;18.60;99.90;;;;;;4978821;28;20246;-85
2021/07/02 06:48:18;;;;;;;11.85;8.02;;;;;;;;;;4981026;28;20211;-87
2021/07/02 06:50:45;;;;;;;8.35;7.50;;;18.70;99.90;;;;;;4976580;28;20204;-84
2021/07/02 06:53:11;;;;;;;9.52;7.13;;;19.00;99.90;;;;;;4974903;28;20595;-86
2021/07/02 06:55:37;;;;;;;9.95;7.18;;;18.90;99.90;;;;;;4975162;28;20178;-87
2021/07/02 06:58:04;;;;;;;8.85;7.05;;;;;;;;;;4975407;28;20175;-87
2021/07/02 07:00:30;;;;;;;9.05;7.22;;;18.80;99.90;;;;;;4958355;28;20186;-87
2021/07/02 07:02:57;;;;;;;9.20;7.50;;;19.40;99.90;;;;;;4974409;28;20199;-87
2021/07/02 07:05:23;;;;;;;7.97;7.15;;;18.90;99.90;;;;;;4974432;28;20632;-86
2021/07/02 07:07:49;;;;;;;8.13;7.22;;;18.60;99.90;;;;;;4976349;28;20182;-87
2021/07/02 07:10:15;;;;;;;9.57;7.60;;;;;;;;;;4976524;28;20189;-87
2021/07/02 07:12:41;;;;;;;12.02;8.10;;;;;;;;;;4976047;28;20628;-87
2021/07/02 07:15:07;;;;;;;9.80;7.95;;;19.40;99.90;;;;;;4976689;28;20183;-86
2021/07/02 07:17:33;;;;;;;12.15;9.93;;;19.10;99.90;;;;;;4974445;28;20206;-87
2021/07/02 07:19:59;;;;;;;15.52;11.25;;;;;;;;;;4974896;28;21586;-88
2021/07/02 07:22:25;;;;;;;13.18;10.90;;;19.60;99.90;;;;;;4958766;28;20258;-86
2021/07/02 07:24:51;;;;;;;13.48;11.95;;;19.20;99.90;;;;;;4975693;28;20261;-86
2021/07/02 07:27:17;;;;;;;15.10;11.40;;;;;;;;;;4958035;28;20220;-87
2021/07/02 07:29:42;;;;;;;14.05;11.35;;;20.20;99.90;;;;;;4974318;28;20265;-86
2021/07/02 07:32:09;;;;;;;13.25;11.35;;;;;;;;;;4975837;28;20687;-88
2021/07/02 07:37:09;;;;;;;14.80;10.93;;;20.00;99.90;;;;;;4974047;28;20702;-86
2021/07/02 07:39:35;;;;;;;13.32;11.40;;;19.90;99.90;;;;;;4973861;28;20546;-86
2021/07/02 07:42:01;;;;;;;14.35;11.82;;;20.20;99.90;;;;;;4974456;28;20190;-86
2021/07/02 07:44:27;;;;;;;17.05;12.00;;;;;;;;;;4975540;28;20178;-86
2021/07/02 07:46:55;;;;;;;16.63;11.50;;;;;;;;;;4974246;28;20199;-87
2021/07/02 07:49:21;;;;;;;11.27;10.07;;;20.00;99.90;;;;;;4974384;28;20183;-86
2021/07/02 07:51:50;;;;;;;13.00;11.55;;;;;;;;;;4974646;28;20190;-86
2021/07/02 07:54:16;;;;;;;14.05;11.20;;;20.60;99.90;;;;;;4974627;28;20314;-86
2021/07/02 07:56:50;;;;;;;13.18;11.55;;;;;;;;;;4975555;28;20262;-86
2021/07/02 07:59:17;;;;;;;15.85;13.38;;;20.90;99.90;;;;;;4975870;28;20186;-85
2021/07/02 08:01:43;;;;;;;15.82;12.48;;;21.10;99.90;;;;;;4981106;28;20636;-88
2021/07/02 08:04:10;;;;;;;15.10;13.50;;;;;;;;;;4975805;28;20186;-86
2021/07/02 08:06:35;;;;;;;16.42;14.45;;;20.80;99.90;;;;;;4974750;28;20202;-84
2021/07/02 08:09:01;;;;;;;19.42;13.65;;;;;;;;;;4974105;28;20208;-85
2021/07/02 08:11:27;;;;;;;15.90;12.98;;;;;;;;;;4973586;28;20183;-84
2021/07/02 08:13:53;;;;;;;17.45;12.98;;;;;;;;;;4956749;28;20210;-85
2021/07/02 08:16:19;;;;;;;14.40;12.88;;;;;;;;;;4973742;28;20174;-85
2021/07/02 08:18:45;;;;;;;17.70;15.07;;;;;;;;;;4973603;28;20385;-85
2021/07/02 08:21:11;;;;;;;16.02;13.23;;;;;;;;;;4972930;28;20190;-85
2021/07/02 08:23:37;;;;;;;15.63;13.40;;;;;;;;;;4973679;28;20229;-85
2021/07/02 08:26:03;;;;;;;13.90;12.15;;;;;;;;;;4974408;28;20537;-86
2021/07/02 08:31:13;;;;;;;10.55;9.45;;;20.90;99.90;;;;;;4976434;28;20181;-86
2021/07/02 08:33:39;;;;;;;12.00;10.77;;;;;;;;;;4973694;28;20225;-86
2021/07/02 08:36:05;;;;;;;20.55;10.10;;;21.20;99.90;;;;;;4975300;28;20264;-86
2021/07/02 08:38:31;;;;;;;13.05;10.68;;;;;;;;;;4957986;28;20183;-87
2021/07/02 08:40:57;;;;;;;9.77;8.00;;;;;;;;;;4975449;28;20179;-86
2021/07/02 08:43:23;;;;;;;9.07;7.38;;;;;;;;;;4974350;28;20186;-87
2021/07/02 08:45:49;;;;;;;7.75;6.95;;;21.50;99.90;;;;;;4974124;28;20566;-86
2021/07/02 08:48:19;;;;;;;9.65;7.13;;;21.40;99.90;;;;;;4975432;28;20179;-87
2021/07/02 08:50:45;;;;;;;8.95;7.80;;;;;;;;;;4975796;28;20177;-86
2021/07/02 08:53:11;;;;;;;9.18;8.13;;;21.60;99.90;;;;;;4974316;28;20207;-86
2021/07/02 08:55:39;;;;;;;13.55;8.65;;;;;;;;;;4974026;28;20185;-86
2021/07/02 08:58:11;;;;;;;13.35;8.02;;;21.80;99.90;;;;;;4976347;28;20179;-85
2021/07/02 09:00:37;;;;;;;6.82;5.38;;;;;;;;;;4977036;28;20174;-86
2021/07/02 09:03:28;;;;;;;7.15;6.05;;;21.20;99.90;;;;;;4980660;28;20266;-85
2021/07/02 09:05:55;;;;;;;8.68;6.10;;;21.80;99.90;;;;;;4997298;28;20171;-84
2021/07/02 09:08:23;;;;;;;9.95;7.38;;;21.40;99.90;;;;;;4976830;28;20182;-83
2021/07/02 09:10:49;;;;;;;7.65;6.05;;;21.90;99.90;;;;;;4975952;28;20175;-84
2021/07/02 09:13:16;;;;;;;7.03;5.25;;;;;;;;;;4973545;28;20562;-84
2021/07/02 09:15:47;;;;;;;7.18;5.05;;;21.60;99.90;;;;;;4973574;28;20183;-87
2021/07/02 09:18:13;;;;;;;5.70;5.13;;;21.80;99.90;;;;;;4958381;28;20186;-86
2021/07/02 09:20:41;;;;;;;5.93;3.72;;;22.20;99.90;;;;;;4957274;28;20226;-85
2021/07/02 09:23:09;;;;;;;3.92;3.22;;;22.10;99.90;;;;;;4973550;28;20186;-85
2021/07/02 09:25:37;;;;;;;3.70;3.25;;;22.20;99.90;;;;;;4974374;28;20174;-85
2021/07/02 09:28:08;;;;;;;3.05;2.78;;;22.20;99.90;;;;;;4973423;28;20187;-85
2021/07/02 09:30:36;;;;;;;3.17;2.65;;;22.00;99.90;;;;;;4973392;28;20179;-85
2021/07/02 09:33:11;;;;;;;3.67;2.72;;;22.60;99.90;;;;;;4973921;28;20210;-86
2021/07/02 09:35:46;;;;;;;2.40;2.20;;;22.20;99.90;;;;;;4973282;28;20206;-85
2021/07/02 09:38:14;;;;;;;3.63;2.20;;;22.30;99.90;;;;;;4973491;28;20190;-86
2021/07/02 09:40:40;;;;;;;2.42;2.15;;;;;;;;;;4974245;28;20185;-86
2021/07/02 09:43:15;;;;;;;1.63;1.38;;;22.70;99.90;;;;;;4973023;28;20189;-85
2021/07/02 09:45:44;;;;;;;1.70;1.60;;;22.30;99.90;;;;;;4974239;28;20158;-84
2021/07/02 09:48:12;;;;;;;2.75;2.55;;;22.50;99.90;;;;;;4973971;28;20178;-85
2021/07/02 09:50:43;;;;;;;2.60;2.38;;;22.10;99.90;;;;;;4972043;28;20563;-86
2021/07/02 09:53:10;;;;;;;2.25;1.92;;;;;;;;;;4973828;28;20659;-85
2021/07/02 09:55:50;;;;;;;10.35;2.72;;;22.20;99.90;;;;;;4956329;28;20193;-86
2021/07/02 09:58:19;;;;;;;14.65;2.53;;;22.60;99.90;;;;;;4974349;28;20166;-87
2021/07/02 10:00:51;;;;;;;2.25;1.42;;;22.80;99.90;;;;;;4973609;28;20598;-87
2021/07/02 10:03:19;;;;;;;5.35;1.83;;;22.60;99.90;;;;;;4973697;28;20245;-86
2021/07/02 10:05:45;;;;;;;1.83;1.45;;;;;;;;;;4974940;28;20186;-86
2021/07/02 10:08:11;;;;;;;2.80;1.42;;;;;;;;;;4973348;28;20174;-87
2021/07/02 10:10:37;;;;;;;1.83;1.60;;;23.50;99.90;;;;;;4975538;28;20186;-89
2021/07/02 10:13:04;;;;;;;2.58;1.60;;;23.30;99.90;;;;;;4974221;28;20203;-88
2021/07/02 10:15:29;;;;;;;3.97;1.70;;;23.00;99.90;;;;;;4973376;28;20206;-87
2021/07/02 10:17:59;;;;;;;5.25;2.00;;;23.20;99.90;;;;;;4974094;28;20179;-88
2021/07/02 10:20:27;;;;;;;2.58;2.13;;;23.20;99.90;;;;;;4974942;28;20555;-87
2021/07/02 10:22:59;;;;;;;4.15;1.90;;;23.40;99.90;;;;;;4974102;28;20174;-90
2021/07/02 10:25:30;;;;;;;1.55;1.45;;;23.20;99.90;;;;;;4974168;28;20221;-88
2021/07/02 10:27:56;;;;;;;2.05;1.65;;;;;;;;;;4973192;28;20178;-88
2021/07/02 10:30:23;;;;;;;2.58;1.88;;;;;;;;;;4975332;28;20643;-89
2021/07/02 10:32:54;;;;;;;1.85;1.40;;;23.80;99.90;;;;;;4973299;28;20644;-88
2021/07/02 10:35:20;;;;;;;2.20;2.00;;;;;;;;;;4973683;28;20182;-87
2021/07/02 10:37:48;;;;;;;3.63;1.58;;;23.50;99.90;;;;;;4972877;28;20234;-88
2021/07/02 10:40:34;;;;;;;2.97;1.50;;;23.50;99.90;;;;;;4975230;28;20171;-84
2021/07/02 10:43:05;;;;;;;2.05;1.60;;;23.30;99.90;;;;;;4974328;28;20214;-87
2021/07/02 10:45:31;;;;;;;2.92;1.63;;;;;;;;;;4974277;28;21520;-87
2021/07/02 10:47:58;;;;;;;1.73;1.63;;;;;;;;;;4973948;28;20549;-87
2021/07/02 10:50:42;;;;;;;2.85;1.50;;;22.70;99.90;;;;;;4974190;28;20174;-86
2021/07/02 10:53:28;;;;;;;2.22;1.55;;;23.50;99.90;;;;;;4977745;28;20217;-87
2021/07/02 10:55:54;;;;;;;1.55;1.45;;;23.70;99.90;;;;;;4978423;28;20175;-86
2021/07/02 10:58:22;;;;;;;1.77;1.67;;;23.70;99.90;;;;;;4976533;28;20187;-86
2021/07/02 11:01:11;;;;;;;1.60;1.50;;;23.70;99.90;;;;;;4976021;28;20186;-86
2021/07/02 11:03:37;;;;;;;1.63;1.33;;;23.40;99.90;;;;;;4988905;28;20182;-87
2021/07/02 11:06:39;;;;;;;1.52;1.42;;;23.40;99.90;;;;;;4976354;28;20185;-85
2021/07/02 11:09:08;;;;;;;2.13;1.80;;;23.80;99.90;;;;;;4967567;28;20265;-87
2021/07/02 11:12:07;;;;;;;1.83;1.38;;;23.60;99.90;;;;;;4977173;28;20175;-87
2021/07/02 11:14:34;;;;;;;2.15;1.40;;;;;;;;;;4981247;28;20202;-85
2021/07/02 11:17:27;;;;;;;1.25;1.02;;;24.40;99.90;;;;;;4979370;28;20203;-88
2021/07/02 11:20:09;;;;;;;1.67;1.58;;;24.00;99.90;;;;;;4978981;28;20703;-85
2021/07/02 11:22:37;;;;;;;2.92;1.33;;;24.00;99.90;;;;;;4981035;28;20174;-86
2021/07/02 11:25:13;;;;;;;2.35;1.40;;;23.70;99.90;;;;;;4975631;28;20257;-88
2021/07/02 11:28:02;;;;;;;3.97;2.28;;;24.30;99.90;;;;;;4974340;28;20233;-87
2021/07/02 11:30:34;;;;;;;1.02;1.00;;;23.70;99.90;;;;;;4974552;28;20793;-85
2021/07/02 11:33:09;;;;;;;1.85;1.20;;;23.80;99.90;;;;;;4974081;28;20206;-86
2021/07/02 11:35:44;;;;;;;2.40;1.38;;;23.00;99.90;;;;;;4974365;28;20680;-84
2021/07/02 11:38:15;;;;;;;1.20;1.10;;;23.40;99.90;;;;;;4976025;28;20189;-85
2021/07/02 11:40:52;;;;;;;1.20;1.10;;;23.60;99.90;;;;;;4973817;28;20195;-85
2021/07/02 11:43:30;;;;;;;3.55;1.50;;;24.00;99.90;;;;;;4975532;28;20182;-84
2021/07/02 11:45:57;;;;;;;1.35;1.17;;;23.80;99.90;;;;;;4975207;28;20256;-86
2021/07/02 11:48:23;;;;;;;3.85;1.65;;;;;;;;;;4972002;28;20218;-84
2021/07/02 11:50:55;;;;;;;2.63;2.10;;;23.70;99.90;;;;;;4975924;28;20253;-87
2021/07/02 11:53:29;;;;;;;7.40;1.58;;;23.80;99.90;;;;;;4975608;28;20198;-87
2021/07/02 11:56:08;;;;;;;2.15;1.27;;;23.70;99.90;;;;;;4975665;28;20170;-85
2021/07/02 11:58:36;;;;;;;6.03;1.20;;;23.80;99.90;;;;;;4973750;28;20178;-86
2021/07/02 12:01:14;;;;;;;1.30;1.17;;;23.40;99.90;;;;;;4973965;28;20194;-85
2021/07/02 12:04:00;;;;;;;4.43;1.90;;;23.30;99.90;;;;;;4973244;28;20182;-86
2021/07/02 12:06:31;;;;;;;4.95;1.95;;;23.80;99.90;;;;;;4973467;28;20181;-87
2021/07/02 12:09:05;;;;;;;1.33;1.23;;;23.70;99.90;;;;;;4973785;28;20198;-87
2021/07/02 12:11:36;;;;;;;3.30;1.20;;;24.50;99.90;;;;;;4974586;28;20514;-87
2021/07/02 12:14:04;;;;;;;3.95;1.05;;;24.10;99.90;;;;;;4972435;28;20282;-87
2021/07/02 12:16:33;;;;;;;2.05;1.13;;;24.10;99.90;;;;;;4973838;28;20187;-87
2021/07/02 12:18:59;;;;;;;2.25;1.30;;;23.80;99.90;;;;;;4973662;28;20628;-87
2021/07/02 12:21:29;;;;;;;3.80;1.48;;;;;;;;;;4973678;28;20170;-87
2021/07/02 12:23:55;;;;;;;5.03;2.67;;;;;;;;;;4974562;28;20179;-87
2021/07/02 12:26:25;;;;;;;4.20;2.22;;;23.50;99.90;;;;;;4973322;28;20178;-87
2021/07/02 12:28:56;;;;;;;1.40;1.30;;;23.60;99.90;;;;;;4974340;28;20179;-87
2021/07/02 12:31:28;;;;;;;1.42;1.33;;;23.70;99.90;;;;;;4975257;28;20175;-87
2021/07/02 12:33:54;;;;;;;3.95;1.50;;;23.50;99.90;;;;;;4971489;28;20214;-87
2021/07/02 12:36:24;;;;;;;1.58;1.48;;;23.20;99.90;;;;;;4973214;28;20233;-88
2021/07/02 12:39:13;;;;;;;4.95;1.48;;;24.10;99.90;;;;;;4972544;28;20205;-89
2021/07/02 12:41:47;;;;;;;1.48;1.38;;;23.70;99.90;;;;;;4973800;28;20221;-88
2021/07/02 12:44:23;;;;;;;4.43;1.58;;;23.90;99.90;;;;;;4971605;28;20179;-87
2021/07/02 12:46:50;;;;;;;1.83;1.33;;;24.00;99.90;;;;;;4973780;28;20174;-85
2021/07/02 12:49:16;;;;;;;1.30;1.20;;;;;;;;;;4973566;28;20190;-86
2021/07/02 12:51:59;;;;;;;3.33;1.45;;;;;;;;;;4973478;28;20545;-87
2021/07/02 12:57:24;;;;;;;1.30;0.98;;;24.10;99.90;;;;;;4955219;29;20178;-85
2021/07/02 13:00:01;;;;;;;1.05;1.02;;;24.20;99.90;;;;;;4954390;29;20261;-87
2021/07/02 13:02:27;;;;;;;1.98;1.40;;;;;;;;;;4955195;28;20171;-85
2021/07/02 13:04:54;;;;;;;1.52;1.30;;;24.10;99.90;;;;;;4953482;29;20187;-87
2021/07/02 13:07:21;;;;;;;3.38;1.20;;;;;;;;;;4954935;28;20186;-86
2021/07/02 13:09:47;;;;;;;1.98;1.75;;;;;;;;;;4954095;29;20206;-82
2021/07/02 13:12:14;;;;;;;2.08;1.80;;;23.70;99.90;;;;;;4953227;29;20544;-86
2021/07/02 13:14:49;;;;;;;1.70;1.60;;;;;;;;;;4953179;28;20311;-87
2021/07/02 13:17:15;;;;;;;3.13;1.90;;;;;;;;;;4938295;29;20632;-84
2021/07/02 13:19:41;;;;;;;2.83;2.58;;;;;;;;;;4965826;28;20190;-86
2021/07/02 13:22:20;;;;;;;5.25;3.10;;;23.60;99.90;;;;;;4971858;28;20194;-86
2021/07/02 13:24:46;;;;;;;5.40;3.90;;;;;;;;;;4971322;28;20261;-90
2021/07/02 13:27:17;;;;;;;9.30;4.05;;;23.70;99.90;;;;;;4955631;28;20623;-86
2021/07/02 13:29:43;;;;;;;5.85;3.33;;;;;;;;;;4972270;28;20640;-89